createdAt,value
2017-11-06T00:00:11.968Z,0
2017-11-06T00:01:11.958Z,0
2017-11-06T00:02:11.941Z,0
2017-11-06T00:03:11.928Z,0
2017-11-06T00:04:12.254Z,0
2017-11-06T00:05:11.897Z,0
2017-11-06T00:06:11.881Z,0
2017-11-06T00:07:11.867Z,0
2017-11-06T00:08:12.196Z,0
2017-11-06T00:09:11.839Z,0
2017-11-06T00:10:12.168Z,0
2017-11-06T00:11:11.811Z,0
2017-11-06T00:12:12.187Z,0
2017-11-06T00:13:11.785Z,0
2017-11-06T00:14:11.768Z,0
2017-11-06T00:15:11.772Z,0
2017-11-06T00:16:11.739Z,0
2017-11-06T00:17:11.725Z,0
2017-11-06T00:18:11.711Z,0
2017-11-06T00:19:12.040Z,0
2017-11-06T00:20:11.681Z,0
2017-11-06T00:21:11.667Z,0
2017-11-06T00:22:11.653Z,0
2017-11-06T00:23:11.650Z,0
2017-11-06T00:24:11.627Z,0
2017-11-06T00:25:11.608Z,0
2017-11-06T00:26:11.596Z,0
2017-11-06T00:27:11.581Z,0
2017-11-06T00:28:11.907Z,0
2017-11-06T00:29:11.573Z,0
2017-11-06T00:30:11.882Z,0
2017-11-06T00:31:11.522Z,0
2017-11-06T00:32:11.506Z,0
2017-11-06T00:33:11.839Z,0
2017-11-06T00:34:11.825Z,0
2017-11-06T00:35:11.823Z,0
2017-11-06T00:36:11.452Z,0
2017-11-06T00:37:11.436Z,0
2017-11-06T00:38:11.420Z,0
2017-11-06T00:39:11.407Z,0
2017-11-06T00:40:11.736Z,0
2017-11-06T00:41:11.377Z,0
2017-11-06T00:42:11.362Z,0
2017-11-06T00:43:11.347Z,0
2017-11-06T00:44:11.339Z,0
2017-11-06T00:45:11.321Z,0
2017-11-06T00:46:11.303Z,0
2017-11-06T00:47:11.291Z,0
2017-11-06T00:48:11.278Z,0
2017-11-06T00:49:11.266Z,0
2017-11-06T00:50:11.601Z,0
2017-11-06T00:51:11.235Z,0
2017-11-06T00:52:11.559Z,0
2017-11-06T00:53:11.214Z,0
2017-11-06T00:54:11.533Z,0
2017-11-06T00:55:11.172Z,0
2017-11-06T00:56:11.161Z,0
2017-11-06T00:57:11.488Z,0
2017-11-06T00:58:11.140Z,0
2017-11-06T00:59:11.115Z,0
2017-11-06T01:00:11.102Z,0
2017-11-06T01:01:11.093Z,0
2017-11-06T01:02:11.417Z,0
2017-11-06T01:03:11.071Z,0
2017-11-06T01:04:11.043Z,0
2017-11-06T01:05:11.041Z,0
2017-11-06T01:06:11.018Z,0
2017-11-06T01:07:11.360Z,0
2017-11-06T01:08:11.008Z,0
2017-11-06T01:09:11.311Z,0
2017-11-06T01:10:10.957Z,0
2017-11-06T01:11:11.284Z,0
2017-11-06T01:12:11.270Z,0
2017-11-06T01:13:11.266Z,0
2017-11-06T01:14:11.244Z,0
2017-11-06T01:15:10.884Z,0
2017-11-06T01:16:11.219Z,0
2017-11-06T01:17:10.855Z,0
2017-11-06T01:18:11.186Z,0
2017-11-06T01:19:10.827Z,0
2017-11-06T01:20:10.813Z,0
2017-11-06T01:21:11.143Z,0
2017-11-06T01:22:10.785Z,0
2017-11-06T01:23:10.770Z,0
2017-11-06T01:24:10.758Z,0
2017-11-06T01:25:10.743Z,0
2017-11-06T01:26:11.066Z,0
2017-11-06T01:27:10.709Z,0
2017-11-06T01:28:11.079Z,0
2017-11-06T01:29:10.680Z,0
2017-11-06T01:30:11.009Z,0
2017-11-06T01:31:10.654Z,0
2017-11-06T01:32:10.979Z,0
2017-11-06T01:33:10.983Z,0
2017-11-06T01:34:10.952Z,0
2017-11-06T01:35:10.610Z,0
2017-11-06T01:36:10.580Z,0
2017-11-06T01:37:10.913Z,0
2017-11-06T01:38:10.554Z,0
2017-11-06T01:39:10.879Z,0
2017-11-06T01:40:10.524Z,0
2017-11-06T01:41:10.510Z,0
2017-11-06T01:42:10.835Z,0
2017-11-06T01:43:10.499Z,0
2017-11-06T01:44:10.467Z,0
2017-11-06T01:45:10.465Z,0
2017-11-06T01:46:10.801Z,0
2017-11-06T01:47:10.759Z,0
2017-11-06T01:48:10.429Z,0
2017-11-06T01:49:10.392Z,0
2017-11-06T01:50:10.378Z,0
2017-11-06T01:51:10.362Z,0
2017-11-06T01:52:10.350Z,0
2017-11-06T01:53:10.338Z,0
2017-11-06T01:54:10.677Z,0
2017-11-06T01:55:10.310Z,0
2017-11-06T01:56:10.629Z,0
2017-11-06T01:57:10.278Z,0
2017-11-06T01:58:10.602Z,0
2017-11-06T01:59:10.595Z,0
2017-11-06T02:00:10.231Z,0
2017-11-06T02:01:10.567Z,0
2017-11-06T02:02:10.204Z,0
2017-11-06T02:03:10.192Z,0
2017-11-06T02:04:10.177Z,0
2017-11-06T02:05:10.516Z,0
2017-11-06T02:06:10.147Z,0
2017-11-06T02:07:10.135Z,0
2017-11-06T02:08:10.124Z,0
2017-11-06T02:09:10.104Z,0
2017-11-06T02:10:10.443Z,0
2017-11-06T02:11:10.084Z,0
2017-11-06T02:12:10.060Z,0
2017-11-06T02:13:10.411Z,0
2017-11-06T02:14:10.053Z,0
2017-11-06T02:15:10.368Z,0
2017-11-06T02:16:10.001Z,0
2017-11-06T02:17:10.329Z,0
2017-11-06T02:18:10.018Z,0
2017-11-06T02:19:09.963Z,0
2017-11-06T02:20:10.297Z,0
2017-11-06T02:21:10.280Z,0
2017-11-06T02:22:10.257Z,0
2017-11-06T02:23:09.918Z,0
2017-11-06T02:24:09.889Z,0
2017-11-06T02:25:09.872Z,0
2017-11-06T02:26:10.199Z,0
2017-11-06T02:27:10.196Z,0
2017-11-06T02:28:09.829Z,0
2017-11-06T02:29:10.162Z,0
2017-11-06T02:30:09.804Z,0
2017-11-06T02:31:10.129Z,0
2017-11-06T02:32:09.784Z,0
2017-11-06T02:33:10.101Z,0
2017-11-06T02:34:09.745Z,0
2017-11-06T02:35:09.732Z,0
2017-11-06T02:36:09.718Z,0
2017-11-06T02:37:09.701Z,0
2017-11-06T02:38:10.037Z,0
2017-11-06T02:39:10.013Z,0
2017-11-06T02:40:10.007Z,0
2017-11-06T02:41:09.645Z,0
2017-11-06T02:42:09.971Z,0
2017-11-06T02:43:09.613Z,0
2017-11-06T02:44:09.943Z,0
2017-11-06T02:45:09.585Z,0
2017-11-06T02:46:09.578Z,0
2017-11-06T02:47:09.558Z,0
2017-11-06T02:48:09.561Z,0
2017-11-06T02:49:09.526Z,0
2017-11-06T02:50:09.512Z,0
2017-11-06T02:51:09.513Z,0
2017-11-06T02:52:09.486Z,0
2017-11-06T02:53:09.808Z,0
2017-11-06T02:54:09.457Z,0
2017-11-06T02:55:09.783Z,0
2017-11-06T02:56:09.765Z,0
2017-11-06T02:57:09.412Z,0
2017-11-06T02:58:09.740Z,0
2017-11-06T02:59:09.382Z,0
2017-11-06T03:00:09.369Z,0
2017-11-06T03:01:09.364Z,0
2017-11-06T03:02:09.338Z,0
2017-11-06T03:03:09.670Z,0
2017-11-06T03:04:09.310Z,0
2017-11-06T03:05:09.294Z,0
2017-11-06T03:06:09.625Z,0
2017-11-06T03:07:09.266Z,0
2017-11-06T03:08:09.593Z,0
2017-11-06T03:09:09.576Z,0
2017-11-06T03:10:09.225Z,0
2017-11-06T03:11:09.210Z,0
2017-11-06T03:12:09.192Z,0
2017-11-06T03:13:09.179Z,0
2017-11-06T03:14:09.506Z,0
2017-11-06T03:15:09.150Z,0
2017-11-06T03:16:09.137Z,0
2017-11-06T03:17:09.123Z,0
2017-11-06T03:18:09.109Z,0
2017-11-06T03:19:09.094Z,0
2017-11-06T03:20:09.077Z,0
2017-11-06T03:21:09.402Z,0
2017-11-06T03:22:09.051Z,0
2017-11-06T03:23:09.373Z,0
2017-11-06T03:24:09.022Z,0
2017-11-06T03:25:09.004Z,0
2017-11-06T03:26:09.000Z,0
2017-11-06T03:27:08.983Z,0
2017-11-06T03:28:08.982Z,0
2017-11-06T03:29:09.289Z,0
2017-11-06T03:30:08.951Z,0
2017-11-06T03:31:08.962Z,0
2017-11-06T03:32:08.903Z,0
2017-11-06T03:33:08.918Z,0
2017-11-06T03:34:08.873Z,0
2017-11-06T03:35:08.858Z,0
2017-11-06T03:36:08.861Z,0
2017-11-06T03:37:08.831Z,0
2017-11-06T03:38:08.816Z,0
2017-11-06T03:39:08.801Z,0
2017-11-06T03:40:09.156Z,0
2017-11-06T03:41:08.770Z,0
2017-11-06T03:42:08.756Z,0
2017-11-06T03:43:08.742Z,0
2017-11-06T03:44:09.069Z,0
2017-11-06T03:45:08.711Z,0
2017-11-06T03:46:09.038Z,0
2017-11-06T03:47:08.688Z,0
2017-11-06T03:48:08.690Z,0
2017-11-06T03:49:08.654Z,0
2017-11-06T03:50:08.644Z,0
2017-11-06T03:51:08.965Z,0
2017-11-06T03:52:08.619Z,0
2017-11-06T03:53:08.609Z,0
2017-11-06T03:54:08.581Z,0
2017-11-06T03:55:08.567Z,0
2017-11-06T03:56:08.892Z,0
2017-11-06T03:57:08.555Z,0
2017-11-06T03:58:08.519Z,0
2017-11-06T03:59:08.865Z,0
2017-11-06T04:00:08.493Z,0
2017-11-06T04:01:08.477Z,0
2017-11-06T04:02:08.469Z,0
2017-11-06T04:03:08.792Z,0
2017-11-06T04:04:08.799Z,0
2017-11-06T04:05:08.761Z,0
2017-11-06T04:06:08.402Z,0
2017-11-06T04:07:08.390Z,0
2017-11-06T04:08:08.380Z,0
2017-11-06T04:09:08.361Z,0
2017-11-06T04:10:08.344Z,0
2017-11-06T04:11:08.328Z,0
2017-11-06T04:12:08.322Z,0
2017-11-06T04:13:08.298Z,0
2017-11-06T04:14:08.628Z,0
2017-11-06T04:15:08.613Z,0
2017-11-06T04:16:08.607Z,0
2017-11-06T04:17:08.258Z,0
2017-11-06T04:18:08.667Z,0
2017-11-06T04:19:08.223Z,0
2017-11-06T04:20:08.197Z,0
2017-11-06T04:21:08.180Z,0
2017-11-06T04:22:08.169Z,0
2017-11-06T04:23:08.495Z,0
2017-11-06T04:24:08.502Z,0
2017-11-06T04:25:08.122Z,0
2017-11-06T04:26:08.112Z,0
2017-11-06T04:27:08.093Z,0
2017-11-06T04:28:08.083Z,0
2017-11-06T04:29:08.061Z,0
2017-11-06T04:30:08.052Z,0
2017-11-06T04:31:08.034Z,0
2017-11-06T04:32:08.378Z,0
2017-11-06T04:33:08.348Z,0
2017-11-06T04:34:08.346Z,0
2017-11-06T04:35:08.312Z,0
2017-11-06T04:36:08.304Z,0
2017-11-06T04:37:07.954Z,0
2017-11-06T04:38:07.931Z,0
2017-11-06T04:39:07.915Z,0
2017-11-06T04:40:08.274Z,0
2017-11-06T04:41:07.888Z,0
2017-11-06T04:42:08.224Z,0
2017-11-06T04:43:08.195Z,0
2017-11-06T04:44:08.189Z,0
2017-11-06T04:45:07.827Z,0
2017-11-06T04:46:07.810Z,0
2017-11-06T04:47:07.799Z,0
2017-11-06T04:48:07.783Z,0
2017-11-06T04:49:07.769Z,0
2017-11-06T04:50:08.096Z,0
2017-11-06T04:51:08.077Z,0
2017-11-06T04:52:08.077Z,0
2017-11-06T04:53:08.049Z,0
2017-11-06T04:54:08.037Z,0
2017-11-06T04:55:07.675Z,0
2017-11-06T04:56:07.666Z,0
2017-11-06T04:57:07.646Z,0
2017-11-06T04:58:07.636Z,0
2017-11-06T04:59:07.618Z,0
2017-11-06T05:00:07.627Z,0
2017-11-06T05:01:07.598Z,0
2017-11-06T05:02:07.575Z,0
2017-11-06T05:03:07.569Z,0
2017-11-06T05:04:07.546Z,0
2017-11-06T05:05:07.533Z,0
2017-11-06T05:06:07.519Z,0
2017-11-06T05:07:07.497Z,0
2017-11-06T05:08:07.485Z,0
2017-11-06T05:09:07.469Z,0
2017-11-06T05:10:07.456Z,0
2017-11-06T05:11:07.442Z,0
2017-11-06T05:12:07.426Z,0
2017-11-06T05:13:07.412Z,0
2017-11-06T05:14:07.404Z,0
2017-11-06T05:15:07.383Z,0
2017-11-06T05:16:07.365Z,0
2017-11-06T05:17:07.352Z,0
2017-11-06T05:18:07.336Z,0
2017-11-06T05:19:07.323Z,0
2017-11-06T05:20:07.670Z,0
2017-11-06T05:21:07.299Z,0
2017-11-06T05:22:07.277Z,0
2017-11-06T05:23:07.263Z,0
2017-11-06T05:24:07.245Z,0
2017-11-06T05:25:07.231Z,0
2017-11-06T05:26:07.217Z,0
2017-11-06T05:27:07.203Z,0
2017-11-06T05:28:07.187Z,0
2017-11-06T05:29:07.177Z,0
2017-11-06T05:30:07.499Z,0
2017-11-06T05:31:07.166Z,0
2017-11-06T05:32:07.127Z,0
2017-11-06T05:33:07.493Z,0
2017-11-06T05:34:07.454Z,0
2017-11-06T05:35:07.458Z,0
2017-11-06T05:36:07.087Z,0
2017-11-06T05:37:07.396Z,0
2017-11-06T05:38:07.379Z,0
2017-11-06T05:39:07.365Z,0
2017-11-06T05:40:07.006Z,0
2017-11-06T05:41:07.011Z,0
2017-11-06T05:42:07.316Z,0
2017-11-06T05:43:07.307Z,0
2017-11-06T05:44:06.947Z,0
2017-11-06T05:45:06.940Z,0
2017-11-06T05:46:06.946Z,0
2017-11-06T05:47:06.904Z,0
2017-11-06T05:48:06.890Z,0
2017-11-06T05:49:06.876Z,0
2017-11-06T05:50:06.860Z,0
2017-11-06T05:51:06.870Z,0
2017-11-06T05:52:07.174Z,0
2017-11-06T05:53:06.816Z,0
2017-11-06T05:54:07.139Z,0
2017-11-06T05:55:07.125Z,0
2017-11-06T05:56:07.110Z,0
2017-11-06T05:57:07.096Z,0
2017-11-06T05:58:07.076Z,0
2017-11-06T05:59:06.762Z,0
2017-11-06T06:00:07.058Z,0
2017-11-06T06:01:06.694Z,0
2017-11-06T06:02:06.679Z,0
2017-11-06T06:03:06.680Z,0
2017-11-06T06:04:06.651Z,0
2017-11-06T06:05:06.636Z,0
2017-11-06T06:06:06.622Z,0
2017-11-06T06:07:06.603Z,0
2017-11-06T06:08:06.592Z,0
2017-11-06T06:09:06.575Z,0
2017-11-06T06:10:06.900Z,0
2017-11-06T06:11:06.547Z,0
2017-11-06T06:12:06.892Z,0
2017-11-06T06:13:06.857Z,0
2017-11-06T06:14:06.841Z,0
2017-11-06T06:15:06.830Z,0
2017-11-06T06:16:06.812Z,0
2017-11-06T06:17:06.478Z,0
2017-11-06T06:18:06.440Z,0
2017-11-06T06:19:06.763Z,0
2017-11-06T06:20:06.415Z,0
2017-11-06T06:21:06.397Z,0
2017-11-06T06:22:06.379Z,0
2017-11-06T06:23:06.387Z,0
2017-11-06T06:24:06.701Z,0
2017-11-06T06:25:06.904Z,0
2017-11-06T06:26:06.320Z,0
2017-11-06T06:27:06.645Z,0
2017-11-06T06:28:06.294Z,0
2017-11-06T06:29:06.327Z,0
2017-11-06T06:30:06.603Z,0
2017-11-06T06:31:06.246Z,0
2017-11-06T06:32:06.706Z,0
2017-11-06T06:33:06.561Z,0
2017-11-06T06:34:06.202Z,0
2017-11-06T06:35:06.188Z,0
2017-11-06T06:36:06.524Z,0
2017-11-06T06:37:06.496Z,0
2017-11-06T06:38:06.483Z,0
2017-11-06T06:39:06.154Z,0
2017-11-06T06:40:06.113Z,0
2017-11-06T06:41:06.117Z,0
2017-11-06T06:42:06.082Z,0
2017-11-06T06:43:06.071Z,0
2017-11-06T06:44:06.413Z,0
2017-11-06T06:45:06.037Z,0
2017-11-06T06:46:06.023Z,0
2017-11-06T06:47:06.348Z,0
2017-11-06T06:48:06.336Z,0
2017-11-06T06:49:05.977Z,0
2017-11-06T06:50:05.966Z,0
2017-11-06T06:51:05.947Z,0
2017-11-06T06:52:06.277Z,0
2017-11-06T06:53:05.917Z,0
2017-11-06T06:54:06.249Z,0
2017-11-06T06:55:05.889Z,0
2017-11-06T06:56:05.875Z,0
2017-11-06T06:57:05.856Z,0
2017-11-06T06:58:05.844Z,0
2017-11-06T06:59:06.258Z,0
2017-11-06T07:00:06.223Z,0
2017-11-06T07:01:05.805Z,0
2017-11-06T07:02:06.132Z,0
2017-11-06T07:03:05.768Z,0
2017-11-06T07:04:05.779Z,0
2017-11-06T07:05:05.738Z,0
2017-11-06T07:06:05.758Z,0
2017-11-06T07:07:06.098Z,0
2017-11-06T07:08:05.695Z,0
2017-11-06T07:09:05.742Z,0
2017-11-06T07:10:05.957Z,0
2017-11-06T07:11:06.113Z,0
2017-11-06T07:12:05.748Z,0
2017-11-06T07:13:05.726Z,0
2017-11-06T07:14:05.945Z,0
2017-11-06T07:15:05.935Z,0
2017-11-06T07:16:05.574Z,0
2017-11-06T07:17:05.908Z,0
2017-11-06T07:18:05.551Z,0
2017-11-06T07:19:05.878Z,0
2017-11-06T07:20:05.516Z,0
2017-11-06T07:21:05.509Z,0
2017-11-06T07:22:05.485Z,0
2017-11-06T07:23:05.875Z,0
2017-11-06T07:24:05.454Z,0
2017-11-06T07:25:05.437Z,0
2017-11-06T07:26:05.427Z,0
2017-11-06T07:27:05.410Z,0
2017-11-06T07:28:05.399Z,0
2017-11-06T07:29:05.381Z,0
2017-11-06T07:30:05.382Z,0
2017-11-06T07:31:05.744Z,0
2017-11-06T07:32:05.682Z,0
2017-11-06T07:33:05.687Z,0
2017-11-06T07:34:05.648Z,0
2017-11-06T07:35:05.292Z,0
2017-11-06T07:36:05.620Z,0
2017-11-06T07:37:05.600Z,0
2017-11-06T07:38:05.267Z,0
2017-11-06T07:39:05.231Z,0
2017-11-06T07:40:06.210Z,0
2017-11-06T07:41:05.552Z,0
2017-11-06T07:42:05.526Z,0
2017-11-06T07:43:05.172Z,0
2017-11-06T07:44:05.495Z,0
2017-11-06T07:45:05.517Z,0
2017-11-06T07:46:05.134Z,0
2017-11-06T07:47:05.110Z,0
2017-11-06T07:48:05.437Z,0
2017-11-06T07:49:05.083Z,0
2017-11-06T07:50:05.084Z,0
2017-11-06T07:51:05.053Z,0
2017-11-06T07:52:05.041Z,0
2017-11-06T07:53:05.372Z,0
2017-11-06T07:54:05.012Z,0
2017-11-06T07:55:04.993Z,0
2017-11-06T07:56:04.986Z,0
2017-11-06T07:57:05.119Z,0
2017-11-06T07:58:04.950Z,0
2017-11-06T07:59:04.952Z,0
2017-11-06T08:00:05.267Z,0
2017-11-06T08:01:05.245Z,0
2017-11-06T08:02:05.238Z,0
2017-11-06T08:03:05.215Z,0
2017-11-06T08:04:05.204Z,0
2017-11-06T08:05:04.857Z,0
2017-11-06T08:06:05.173Z,0
2017-11-06T08:07:04.814Z,0
2017-11-06T08:08:05.147Z,0
2017-11-06T08:09:05.155Z,0
2017-11-06T08:10:04.771Z,0
2017-11-06T08:11:04.757Z,0
2017-11-06T08:12:04.741Z,0
2017-11-06T08:13:04.728Z,0
2017-11-06T08:14:05.072Z,0
2017-11-06T08:15:05.050Z,0
2017-11-06T08:16:04.684Z,0
2017-11-06T08:17:05.007Z,0
2017-11-06T08:18:04.993Z,0
2017-11-06T08:19:04.639Z,0
2017-11-06T08:20:04.624Z,0
2017-11-06T08:21:04.611Z,0
2017-11-06T08:22:04.593Z,0
2017-11-06T08:23:04.579Z,0
2017-11-06T08:24:04.566Z,0
2017-11-06T08:25:04.549Z,0
2017-11-06T08:26:04.542Z,0
2017-11-06T08:27:04.520Z,0
2017-11-06T08:28:04.509Z,0
2017-11-06T08:29:04.666Z,0
2017-11-06T08:30:04.607Z,0
2017-11-06T08:31:04.803Z,0
2017-11-06T08:32:04.788Z,0
2017-11-06T08:33:04.431Z,0
2017-11-06T08:34:04.423Z,0
2017-11-06T08:35:04.402Z,0
2017-11-06T08:36:04.390Z,0
2017-11-06T08:37:04.370Z,0
2017-11-06T08:38:04.358Z,0
2017-11-06T08:39:04.360Z,0
2017-11-06T08:40:04.328Z,0
2017-11-06T08:41:04.664Z,0
2017-11-06T08:42:04.297Z,0
2017-11-06T08:43:04.312Z,0
2017-11-06T08:44:04.658Z,0
2017-11-06T08:45:04.264Z,0
2017-11-06T08:46:04.239Z,0
2017-11-06T08:47:04.561Z,0
2017-11-06T08:48:04.548Z,0
2017-11-06T08:49:04.534Z,0
2017-11-06T08:50:04.520Z,0
2017-11-06T08:51:04.163Z,0
2017-11-06T08:52:04.146Z,0
2017-11-06T08:53:04.133Z,0
2017-11-06T08:54:04.468Z,0
2017-11-06T08:55:04.100Z,0
2017-11-06T08:56:04.112Z,0
2017-11-06T08:57:04.071Z,0
2017-11-06T08:58:04.416Z,0
2017-11-06T08:59:04.082Z,0
2017-11-06T09:00:04.396Z,0
2017-11-06T09:01:04.362Z,0
2017-11-06T09:02:04.003Z,0
2017-11-06T09:03:04.363Z,0
2017-11-06T09:04:03.970Z,0
2017-11-06T09:05:04.296Z,0
2017-11-06T09:06:03.935Z,0
2017-11-06T09:07:03.922Z,0
2017-11-06T09:08:04.248Z,0
2017-11-06T09:09:03.896Z,0
2017-11-06T09:10:03.878Z,0
2017-11-06T09:11:03.865Z,0
2017-11-06T09:12:03.854Z,0
2017-11-06T09:13:03.829Z,0
2017-11-06T09:14:03.819Z,0
2017-11-06T09:15:03.805Z,0
2017-11-06T09:16:04.128Z,0
2017-11-06T09:17:03.775Z,0
2017-11-06T09:18:04.118Z,0
2017-11-06T09:19:03.746Z,0
2017-11-06T09:20:03.727Z,0
2017-11-06T09:21:04.091Z,0
2017-11-06T09:22:03.705Z,0
2017-11-06T09:23:03.687Z,0
2017-11-06T09:24:03.669Z,0
2017-11-06T09:25:03.996Z,0
2017-11-06T09:26:03.637Z,0
2017-11-06T09:27:03.969Z,0
2017-11-06T09:28:03.623Z,0
2017-11-06T09:29:03.601Z,0
2017-11-06T09:30:03.606Z,0
2017-11-06T09:31:03.564Z,0
2017-11-06T09:32:03.909Z,0
2017-11-06T09:33:03.547Z,0
2017-11-06T09:34:03.523Z,0
2017-11-06T09:35:03.505Z,0
2017-11-06T09:36:03.489Z,0
2017-11-06T09:37:03.486Z,0
2017-11-06T09:38:03.463Z,0
2017-11-06T09:39:03.788Z,0
2017-11-06T09:40:03.793Z,0
2017-11-06T09:41:03.417Z,0
2017-11-06T09:42:03.401Z,0
2017-11-06T09:43:03.388Z,0
2017-11-06T09:44:03.374Z,0
2017-11-06T09:45:03.370Z,0
2017-11-06T09:46:03.688Z,0
2017-11-06T09:47:03.332Z,0
2017-11-06T09:48:03.329Z,0
2017-11-06T09:49:03.301Z,0
2017-11-06T09:50:03.287Z,0
2017-11-06T09:51:03.621Z,0
2017-11-06T09:52:03.599Z,0
2017-11-06T09:53:03.578Z,0
2017-11-06T09:54:03.232Z,0
2017-11-06T09:55:03.211Z,0
2017-11-06T09:56:03.200Z,0
2017-11-06T09:57:03.200Z,0
2017-11-06T09:58:03.165Z,0
2017-11-06T09:59:03.498Z,0
2017-11-06T10:00:03.139Z,0
2017-11-06T10:01:03.126Z,0
2017-11-06T10:02:03.112Z,0
2017-11-06T10:03:03.444Z,0
2017-11-06T10:04:03.420Z,0
2017-11-06T10:05:03.081Z,0
2017-11-06T10:06:03.385Z,0
2017-11-06T10:07:03.034Z,0
2017-11-06T10:08:03.021Z,0
2017-11-06T10:09:03.344Z,0
2017-11-06T10:10:03.014Z,0
2017-11-06T10:11:02.976Z,0
2017-11-06T10:12:02.963Z,0
2017-11-06T10:13:02.950Z,0
2017-11-06T10:14:02.941Z,0
2017-11-06T10:15:03.271Z,0
2017-11-06T10:16:02.903Z,0
2017-11-06T10:17:02.891Z,0
2017-11-06T10:18:02.874Z,0
2017-11-06T10:19:02.869Z,0
2017-11-06T10:20:03.187Z,0
2017-11-06T10:21:02.851Z,0
2017-11-06T10:22:02.816Z,0
2017-11-06T10:23:03.140Z,0
2017-11-06T10:24:02.787Z,0
2017-11-06T10:25:02.798Z,0
2017-11-06T10:26:03.102Z,0
2017-11-06T10:27:02.744Z,0
2017-11-06T10:28:02.728Z,0
2017-11-06T10:29:02.712Z,0
2017-11-06T10:30:02.699Z,0
2017-11-06T10:31:03.029Z,0
2017-11-06T10:32:02.669Z,0
2017-11-06T10:33:02.655Z,0
2017-11-06T10:34:02.641Z,0
2017-11-06T10:35:02.631Z,0
2017-11-06T10:36:02.642Z,0
2017-11-06T10:37:02.597Z,0
2017-11-06T10:38:02.604Z,0
2017-11-06T10:39:02.915Z,0
2017-11-06T10:40:02.895Z,0
2017-11-06T10:41:02.541Z,0
2017-11-06T10:42:02.866Z,0
2017-11-06T10:43:02.510Z,0
2017-11-06T10:44:02.513Z,0
2017-11-06T10:45:02.485Z,0
2017-11-06T10:46:02.466Z,0
2017-11-06T10:47:02.811Z,0
2017-11-06T10:48:02.439Z,0
2017-11-06T10:49:02.429Z,0
2017-11-06T10:50:02.415Z,0
2017-11-06T10:51:02.396Z,0
2017-11-06T10:52:02.380Z,0
2017-11-06T10:53:02.365Z,0
2017-11-06T10:54:02.363Z,0
2017-11-06T10:55:02.682Z,0
2017-11-06T10:56:02.322Z,0
2017-11-06T10:57:02.652Z,0
2017-11-06T10:58:02.295Z,0
2017-11-06T10:59:02.282Z,0
2017-11-06T11:00:02.265Z,0
2017-11-06T11:01:02.248Z,0
2017-11-06T11:02:02.239Z,0
2017-11-06T11:03:02.564Z,0
2017-11-06T11:04:02.206Z,0
2017-11-06T11:05:02.531Z,0
2017-11-06T11:06:02.179Z,0
2017-11-06T11:07:02.508Z,0
2017-11-06T11:08:02.150Z,0
2017-11-06T11:09:02.150Z,0
2017-11-06T11:10:02.121Z,0
2017-11-06T11:11:02.464Z,0
2017-11-06T11:12:02.090Z,0
2017-11-06T11:13:02.417Z,0
2017-11-06T11:14:02.402Z,0
2017-11-06T11:15:02.050Z,0
2017-11-06T11:16:02.380Z,0
2017-11-06T11:17:02.019Z,0
2017-11-06T11:18:02.012Z,0
2017-11-06T11:19:01.994Z,0
2017-11-06T11:20:01.977Z,0
2017-11-06T11:21:02.309Z,0
2017-11-06T11:22:02.315Z,0
2017-11-06T11:23:01.933Z,0
2017-11-06T11:24:02.260Z,0
2017-11-06T11:25:01.904Z,0
2017-11-06T11:26:01.893Z,0
2017-11-06T11:27:01.882Z,0
2017-11-06T11:28:02.209Z,0
2017-11-06T11:29:01.849Z,0
2017-11-06T11:30:01.844Z,0
2017-11-06T11:31:01.824Z,0
2017-11-06T11:32:02.150Z,0
2017-11-06T11:33:02.134Z,0
2017-11-06T11:34:01.779Z,0
2017-11-06T11:35:01.766Z,0
2017-11-06T11:36:01.758Z,0
2017-11-06T11:37:01.741Z,0
2017-11-06T11:38:01.743Z,0
2017-11-06T11:39:01.715Z,0
2017-11-06T11:40:01.696Z,0
2017-11-06T11:41:02.028Z,0
2017-11-06T11:42:02.019Z,1.89
2017-11-06T11:43:01.995Z,1.89
2017-11-06T11:44:01.982Z,2.94
2017-11-06T11:45:01.962Z,3.7
2017-11-06T11:46:01.613Z,4.55
2017-11-06T11:47:01.596Z,5.31
2017-11-06T11:48:01.600Z,8.15
2017-11-06T11:49:01.915Z,9.01
2017-11-06T11:50:01.578Z,8.06
2017-11-06T11:51:01.542Z,6.73
2017-11-06T11:52:01.553Z,7.3
2017-11-06T11:53:01.863Z,7.87
2017-11-06T11:54:01.499Z,11.66
2017-11-06T11:55:01.828Z,13.46
2017-11-06T11:56:01.824Z,12.8
2017-11-06T11:57:01.475Z,15.08
2017-11-06T11:58:01.446Z,13.84
2017-11-06T11:59:01.434Z,12.04
2017-11-06T12:00:01.418Z,13.28
2017-11-06T12:01:01.405Z,12.42
2017-11-06T12:02:01.747Z,11.47
2017-11-06T12:03:01.376Z,10.14
2017-11-06T12:04:01.715Z,7.87
2017-11-06T12:05:01.349Z,7.97
2017-11-06T12:06:01.356Z,9.2
2017-11-06T12:07:01.324Z,10.05
2017-11-06T12:08:01.307Z,9.2
2017-11-06T12:09:01.634Z,8.53
2017-11-06T12:10:01.623Z,8.53
2017-11-06T12:11:01.625Z,11.19
2017-11-06T12:12:01.595Z,11.19
2017-11-06T12:13:01.240Z,10.33
2017-11-06T12:14:01.225Z,8.72
2017-11-06T12:15:01.247Z,8.34
2017-11-06T12:16:01.197Z,9.2
2017-11-06T12:17:01.185Z,9.1
2017-11-06T12:18:01.508Z,7.97
2017-11-06T12:19:01.157Z,6.73
2017-11-06T12:20:01.480Z,5.88
2017-11-06T12:21:01.493Z,5.5
2017-11-06T12:22:01.460Z,4.08
2017-11-06T12:23:01.122Z,3.03
2017-11-06T12:24:01.428Z,4.55
2017-11-06T12:25:01.074Z,5.88
2017-11-06T12:26:01.060Z,4.93
2017-11-06T12:27:01.045Z,6.82
2017-11-06T12:28:01.375Z,7.59
2017-11-06T12:29:01.017Z,7.11
2017-11-06T12:30:01.344Z,4.27
2017-11-06T12:31:00.999Z,3.22
2017-11-06T12:32:00.977Z,4.55
2017-11-06T12:33:00.962Z,5.88
2017-11-06T12:34:00.950Z,9.86
2017-11-06T12:35:01.279Z,16.41
2017-11-06T12:36:00.928Z,17.17
2017-11-06T12:37:00.911Z,17.65
2017-11-06T12:38:01.243Z,18.31
2017-11-06T12:39:00.881Z,19.45
2017-11-06T12:40:01.210Z,20.78
2017-11-06T12:41:00.854Z,21.35
2017-11-06T12:42:01.180Z,20.31
2017-11-06T12:43:00.827Z,19.92
2017-11-06T12:44:00.818Z,16.79
2017-11-06T12:45:01.141Z,13.37
2017-11-06T12:46:00.992Z,10.43
2017-11-06T12:47:00.774Z,8.44
2017-11-06T12:48:01.098Z,7.49
2017-11-06T12:49:00.747Z,8.06
2017-11-06T12:50:00.747Z,8.35
2017-11-06T12:51:01.069Z,7.68
2017-11-06T12:52:00.705Z,8.16
2017-11-06T12:53:00.689Z,8.25
2017-11-06T12:54:01.021Z,7.97
2017-11-06T12:55:00.670Z,7.02
2017-11-06T12:56:00.992Z,8.44
2017-11-06T12:57:00.642Z,9.01
2017-11-06T12:58:00.626Z,11.76
2017-11-06T12:59:00.611Z,13.47
2017-11-06T13:00:00.598Z,13.47
2017-11-06T13:01:00.923Z,12.9
2017-11-06T13:02:00.914Z,14.32
2017-11-06T13:03:00.564Z,14.51
2017-11-06T13:04:00.545Z,14.14
2017-11-06T13:05:00.531Z,14.51
2017-11-06T13:06:00.883Z,13.09
2017-11-06T13:07:00.509Z,12.24
2017-11-06T13:08:00.833Z,10.53
2017-11-06T13:09:00.478Z,10.72
2017-11-06T13:10:00.491Z,13.76
2017-11-06T13:11:00.447Z,16.89
2017-11-06T13:12:00.802Z,16.51
2017-11-06T13:13:00.424Z,15.84
2017-11-06T13:14:00.746Z,16.7
2017-11-06T13:15:00.400Z,16.6
2017-11-06T13:16:00.394Z,14.99
2017-11-06T13:17:00.372Z,14.42
2017-11-06T13:18:00.357Z,12.9
2017-11-06T13:19:00.353Z,12.9
2017-11-06T13:20:00.331Z,13.57
2017-11-06T13:21:00.315Z,12.43
2017-11-06T13:22:00.320Z,10.91
2017-11-06T13:23:00.631Z,11.95
2017-11-06T13:24:00.277Z,12.34
2017-11-06T13:25:00.606Z,12.99
2017-11-06T13:26:00.249Z,13.47
2017-11-06T13:27:00.578Z,17.08
2017-11-06T13:28:00.563Z,17.83
2017-11-06T13:29:00.208Z,18.41
2017-11-06T13:30:00.537Z,19.44
2017-11-06T13:31:00.181Z,19.07
2017-11-06T13:32:00.167Z,18.41
2017-11-06T13:33:00.154Z,17.36
2017-11-06T13:34:00.141Z,15.74
2017-11-06T13:35:00.468Z,15.47
2017-11-06T13:36:00.114Z,14.14
2017-11-06T13:37:00.101Z,15.28
2017-11-06T13:38:00.434Z,17.27
2017-11-06T13:39:00.078Z,18.22
2017-11-06T13:40:00.061Z,20.78
2017-11-06T13:41:00.402Z,20.97
2017-11-06T13:42:00.030Z,21.53
2017-11-06T13:43:00.036Z,21.15
2017-11-06T13:44:00.347Z,21.24
2017-11-06T13:44:59.992Z,19.44
2017-11-06T13:45:59.976Z,17.74
2017-11-06T13:46:59.964Z,17.83
2017-11-06T13:47:59.972Z,18.22
2017-11-06T13:48:59.939Z,16.79
2017-11-06T13:49:59.950Z,16.5
2017-11-06T13:50:59.914Z,14.79
2017-11-06T13:52:00.234Z,13.57
2017-11-06T13:52:59.887Z,12.62
2017-11-06T13:53:59.867Z,12.42
2017-11-06T13:54:59.867Z,12.9
2017-11-06T13:56:00.189Z,11.94
2017-11-06T13:56:59.830Z,11.38
2017-11-06T13:57:59.814Z,11.48
2017-11-06T13:59:00.141Z,12.23
2017-11-06T13:59:59.788Z,12.71
2017-11-06T14:00:59.772Z,12.42
2017-11-06T14:01:59.759Z,16.69
2017-11-06T14:02:59.747Z,17.07
2017-11-06T14:03:59.734Z,16.5
2017-11-06T14:05:00.074Z,15.84
2017-11-06T14:05:59.702Z,13.84
2017-11-06T14:06:59.689Z,12.9
2017-11-06T14:08:00.021Z,12.04
2017-11-06T14:08:59.662Z,11.66
2017-11-06T14:09:59.650Z,11.57
2017-11-06T14:10:59.982Z,11.47
2017-11-06T14:11:59.967Z,11
2017-11-06T14:12:59.606Z,11.1
2017-11-06T14:13:59.599Z,11.38
2017-11-06T14:14:59.578Z,11.29
2017-11-06T14:15:59.623Z,11.29
2017-11-06T14:16:59.554Z,10.81
2017-11-06T14:17:59.884Z,9.95
2017-11-06T14:18:59.868Z,10.14
2017-11-06T14:19:59.515Z,9.77
2017-11-06T14:20:59.496Z,10.05
2017-11-06T14:21:59.488Z,9.1
2017-11-06T14:22:59.810Z,8.15
2017-11-06T14:23:59.459Z,7.87
2017-11-06T14:24:59.785Z,7.87